Ashwood, Mississippi
Current Conditions -  °F | °C
As of 7:55 AM on Wednesday 26 Nov 2014 (Local Time) from KHEZ Reporting Station
Clear Clear  
Wind Chill: 37°   Ceiling: Unl
Heat Index: 41°   Visibility: 10mi
Dew Point: 34°   Wind: 6mph
Humidity: 76%   Direction: 180°S
Pressure: 30.22"   Gusts: NA
Location:  31.1784°N, 91.3525°W
Report Text: KHEZ 261355Z AUTO 18005KT 10SM CLR 05/01 A3022 RMK AO1
Loading
Personal Weather Stations






























Interactive Weather Map New forecast layout! Learn more

10-Day Weather Forecast

Advertisements
Track Severe Weather on mobile